Time;durP1;ratioP1;P1;durP2;ratioP2;P2;SDS_P1;SDS_P2;PMS_P1;PMS_P2;Temp;Humidity;BMP_temperature;BMP_pressure;BME280_temperature;BME280_humidity;BME280_pressure;Samples;Min_cycle;Max_cycle;Signal;HPM_P1;HPM_P2
2023/08/30 00:01:30;;;;;;;;;;;21.20;62.70;;;;;;10200373;28;94221;-43
2023/08/30 00:06:32;;;;;;;;;;;21.10;62.60;;;;;;10199801;28;92675;-45
2023/08/30 00:11:33;;;;;;;;;;;21.10;62.60;;;;;;10200730;28;94531;-45
2023/08/30 00:16:35;;;;;;;;;;;21.10;62.50;;;;;;10197276;28;94478;-44
2023/08/30 00:21:38;;;;;;;;;;;21.10;62.60;;;;;;10196705;28;96041;-45
2023/08/30 00:26:39;;;;;;;;;;;21.10;62.60;;;;;;10195034;28;93836;-46
2023/08/30 00:31:41;;;;;;;;;;;21.10;62.50;;;;;;10215477;28;93455;-45
2023/08/30 00:36:43;;;;;;;;;;;21.10;62.50;;;;;;10200466;28;94473;-45
2023/08/30 00:41:45;;;;;;;;;;;21.10;62.60;;;;;;10195376;28;94240;-49
2023/08/30 00:46:47;;;;;;;;;;;21.10;62.60;;;;;;10195400;28;94020;-50
2023/08/30 00:51:49;;;;;;;;;;;21.00;62.60;;;;;;10197765;28;94594;-50
2023/08/30 00:56:51;;;;;;;;;;;21.00;62.60;;;;;;10197219;28;92705;-47
2023/08/30 01:01:54;;;;;;;;;;;21.00;62.60;;;;;;10199130;28;94525;-46
2023/08/30 01:06:58;;;;;;;;;;;21.00;62.60;;;;;;10185925;28;93215;-51
2023/08/30 01:12:03;;;;;;;;;;;21.00;62.70;;;;;;10196234;28;95711;-47
2023/08/30 01:17:06;;;;;;;;;;;21.00;62.60;;;;;;10196173;28;93765;-46
2023/08/30 01:22:13;;;;;;;;;;;21.00;62.70;;;;;;10196309;28;93519;-47
2023/08/30 01:27:16;;;;;;;;;;;21.00;62.70;;;;;;10212517;28;94446;-45
2023/08/30 01:32:20;;;;;;;;;;;21.00;62.60;;;;;;10197026;28;94784;-46
2023/08/30 01:37:22;;;;;;;;;;;21.00;62.60;;;;;;10188290;28;93649;-47
2023/08/30 01:42:24;;;;;;;;;;;21.00;62.70;;;;;;10178988;28;94488;-46
2023/08/30 01:47:27;;;;;;;;;;;21.00;62.70;;;;;;10210028;28;94158;-48
2023/08/30 01:52:30;;;;;;;;;;;21.00;62.70;;;;;;10181121;28;93444;-45
2023/08/30 01:57:32;;;;;;;;;;;21.00;62.60;;;;;;10196443;28;94832;-44
2023/08/30 02:02:33;;;;;;;;;;;21.00;62.50;;;;;;10192258;28;96304;-44
2023/08/30 02:07:39;;;;;;;;;;;21.00;62.50;;;;;;10196780;28;95086;-49
2023/08/30 02:12:43;;;;;;;;;;;21.00;62.50;;;;;;10199569;28;93386;-45
2023/08/30 02:17:45;;;;;;;;;;;21.00;62.40;;;;;;10190468;28;94718;-44
2023/08/30 02:22:47;;;;;;;;;;;21.00;62.40;;;;;;10197649;28;93990;-45
2023/08/30 02:27:49;;;;;;;;;;;21.00;62.30;;;;;;10189452;28;93720;-44
2023/08/30 02:32:50;;;;;;;;;;;21.00;62.30;;;;;;10193654;28;93478;-45
2023/08/30 02:37:52;;;;;;;;;;;21.00;62.20;;;;;;10196810;28;92721;-44
2023/08/30 02:42:54;;;;;;;;;;;21.00;62.20;;;;;;10186583;28;94672;-45
2023/08/30 02:47:59;;;;;;;;;;;21.00;63.30;;;;;;10192424;28;93932;-47
2023/08/30 02:53:01;;;;;;;;;;;21.00;62.10;;;;;;10196982;28;96630;-49
2023/08/30 02:58:03;;;;;;;;;;;21.00;62.10;;;;;;10202609;28;93576;-46
2023/08/30 03:03:05;;;;;;;;;;;21.00;62.10;;;;;;10200631;28;94464;-44
2023/08/30 03:08:07;;;;;;;;;;;21.00;62.00;;;;;;10205444;28;94888;-47
2023/08/30 03:13:09;;;;;;;;;;;21.00;62.00;;;;;;10201650;28;93605;-45
2023/08/30 03:18:11;;;;;;;;;;;21.00;61.90;;;;;;10215342;28;94637;-45
2023/08/30 03:23:13;;;;;;;;;;;21.00;62.10;;;;;;10201784;28;96148;-45
2023/08/30 03:28:15;;;;;;;;;;;21.00;61.90;;;;;;10202141;28;94214;-44
2023/08/30 03:33:17;;;;;;;;;;;21.00;61.80;;;;;;10201046;28;93510;-45
2023/08/30 03:38:19;;;;;;;;;;;21.00;61.70;;;;;;10211821;28;94098;-48
2023/08/30 03:43:20;;;;;;;;;;;21.00;61.80;;;;;;10197495;28;95801;-45
2023/08/30 03:48:22;;;;;;;;;;;21.00;61.70;;;;;;10197385;28;94741;-45
2023/08/30 03:53:27;;;;;;;;;;;21.00;61.80;;;;;;10199534;28;93781;-45
2023/08/30 03:58:28;;;;;;;;;;;21.00;61.70;;;;;;10198518;28;93461;-45
2023/08/30 04:03:30;;;;;;;;;;;21.00;61.70;;;;;;10195524;28;94471;-46
2023/08/30 04:08:32;;;;;;;;;;;21.00;61.70;;;;;;10200332;28;93436;-45
2023/08/30 04:13:35;;;;;;;;;;;21.00;61.60;;;;;;10199068;28;93953;-50
2023/08/30 04:18:37;;;;;;;;;;;21.00;61.60;;;;;;10198108;28;93750;-44
2023/08/30 04:23:39;;;;;;;;;;;21.00;61.70;;;;;;10188826;28;93059;-49
2023/08/30 04:28:40;;;;;;;;;;;20.90;61.50;;;;;;10190190;28;94413;-44
2023/08/30 04:33:42;;;;;;;;;;;20.90;61.50;;;;;;10193094;28;95826;-46
2023/08/30 04:38:44;;;;;;;;;;;20.90;61.50;;;;;;10197837;28;93562;-49
2023/08/30 04:44:03;;;;;;;;;;;20.90;61.50;;;;;;10192714;28;94024;-47
2023/08/30 04:49:05;;;;;;;;;;;20.90;61.50;;;;;;10633816;22;94883;-67
2023/08/30 04:54:07;;;;;;;;;;;20.90;61.50;;;;;;10234517;28;93553;-66
2023/08/30 04:59:09;;;;;;;;;;;20.90;61.40;;;;;;10234809;28;93911;-66
2023/08/30 05:04:10;;;;;;;;;;;20.90;61.50;;;;;;10234723;28;97167;-66
2023/08/30 05:09:12;;;;;;;;;;;20.90;61.40;;;;;;10235717;28;93274;-67
2023/08/30 05:14:14;;;;;;;;;;;20.80;61.30;;;;;;10235717;28;94541;-67
2023/08/30 05:19:18;;;;;;;;;;;20.80;61.40;;;;;;10218367;28;94558;-66
2023/08/30 05:24:20;;;;;;;;;;;20.90;61.90;;;;;;10234157;28;97034;-67
2023/08/30 05:29:22;;;;;;;;;;;21.00;61.80;;;;;;10229626;28;93923;-67
2023/08/30 05:34:25;;;;;;;;;;;21.00;62.10;;;;;;10229532;28;94681;-67
2023/08/30 05:39:27;;;;;;;;;;;21.00;61.80;;;;;;10232125;28;93619;-67
2023/08/30 05:44:30;;;;;;;;;;;21.00;62.10;;;;;;10230847;28;93501;-67
2023/08/30 05:49:31;;;;;;;;;;;20.90;62.00;;;;;;10231245;28;94422;-67
2023/08/30 05:54:33;;;;;;;;;;;20.90;62.10;;;;;;10217663;28;94288;-66
2023/08/30 05:59:35;;;;;;;;;;;20.90;62.10;;;;;;10233160;28;93826;-66
2023/08/30 06:04:37;;;;;;;;;;;20.80;62.10;;;;;;10234661;28;94512;-67
2023/08/30 06:09:39;;;;;;;;;;;20.80;62.10;;;;;;10236148;28;93453;-66
2023/08/30 06:14:40;;;;;;;;;;;20.80;62.10;;;;;;10232708;28;95031;-67
2023/08/30 06:19:42;;;;;;;;;;;20.80;62.00;;;;;;10233929;28;94728;-67
2023/08/30 06:24:44;;;;;;;;;;;20.70;62.10;;;;;;10234913;28;94682;-67
2023/08/30 06:29:46;;;;;;;;;;;20.80;62.10;;;;;;10232667;28;94377;-67
2023/08/30 06:34:48;;;;;;;;;;;20.70;62.10;;;;;;10234250;28;94714;-67
2023/08/30 06:39:50;;;;;;;;;;;20.80;62.10;;;;;;10235622;28;94809;-67
2023/08/30 06:44:52;;;;;;;;;;;20.70;62.10;;;;;;10222906;28;93459;-67
2023/08/30 06:49:53;;;;;;;;;;;20.70;62.10;;;;;;10229982;28;93769;-67
2023/08/30 06:54:55;;;;;;;;;;;20.70;62.00;;;;;;10228575;28;93355;-67
2023/08/30 06:59:59;;;;;;;;;;;20.70;62.00;;;;;;10222928;28;94752;-67
2023/08/30 07:05:01;;;;;;;;;;;20.70;62.20;;;;;;10219403;28;96762;-67
2023/08/30 07:10:02;;;;;;;;;;;20.70;62.10;;;;;;10235004;28;94414;-67
2023/08/30 07:15:05;;;;;;;;;;;20.70;62.10;;;;;;10233684;28;93856;-66
2023/08/30 07:20:08;;;;;;;;;;;20.70;62.20;;;;;;10247309;28;93457;-66
2023/08/30 07:25:10;;;;;;;;;;;20.70;62.30;;;;;;10234806;28;93291;-67
2023/08/30 07:30:12;;;;;;;;;;;20.70;62.40;;;;;;10234716;28;95639;-67
2023/08/30 07:35:14;;;;;;;;;;;20.70;62.50;;;;;;10234311;28;94081;-67
2023/08/30 07:40:16;;;;;;;;;;;20.70;62.40;;;;;;10229073;28;92803;-68
2023/08/30 07:45:18;;;;;;;;;;;20.70;62.50;;;;;;10240081;28;93517;-68
2023/08/30 07:50:19;;;;;;;;;;;20.70;62.50;;;;;;10215508;28;94363;-67
2023/08/30 07:55:21;;;;;;;;;;;20.70;62.50;;;;;;10238236;28;97640;-68
2023/08/30 08:00:23;;;;;;;;;;;20.70;62.70;;;;;;10236386;28;94106;-67
2023/08/30 08:05:25;;;;;;;;;;;20.70;62.70;;;;;;10235966;28;94524;-68
2023/08/30 08:10:27;;;;;;;;;;;20.70;62.70;;;;;;10227351;28;94065;-68
2023/08/30 08:15:33;;;;;;;;;;;20.70;62.70;;;;;;10235555;28;93579;-67
2023/08/30 08:20:36;;;;;;;;;;;20.70;62.70;;;;;;10238264;28;94702;-67
2023/08/30 08:25:38;;;;;;;;;;;20.70;62.70;;;;;;10239510;28;94517;-67
2023/08/30 08:30:40;;;;;;;;;;;20.70;62.70;;;;;;10236131;28;94006;-68
2023/08/30 08:35:44;;;;;;;;;;;20.70;62.70;;;;;;10238968;28;93907;-68
2023/08/30 08:40:46;;;;;;;;;;;20.70;62.80;;;;;;10236253;28;93517;-67
2023/08/30 08:45:48;;;;;;;;;;;20.70;62.80;;;;;;10233227;28;96030;-68
2023/08/30 08:50:50;;;;;;;;;;;20.70;62.80;;;;;;10237898;28;93744;-68
2023/08/30 08:55:52;;;;;;;;;;;20.70;62.80;;;;;;10225195;28;93369;-67
2023/08/30 09:00:54;;;;;;;;;;;20.80;62.90;;;;;;10234243;28;93448;-67
2023/08/30 09:05:56;;;;;;;;;;;20.70;62.90;;;;;;10227006;28;93719;-68
2023/08/30 09:10:59;;;;;;;;;;;20.80;63.10;;;;;;10224891;28;94472;-67
2023/08/30 09:16:02;;;;;;;;;;;20.70;63.20;;;;;;10218420;28;94539;-67
2023/08/30 09:21:07;;;;;;;;;;;20.70;63.20;;;;;;10231410;28;92773;-68
2023/08/30 09:26:09;;;;;;;;;;;20.70;63.30;;;;;;10233752;28;95011;-68
2023/08/30 09:31:17;;;;;;;;;;;20.70;63.30;;;;;;10214573;28;93806;-68
2023/08/30 09:36:24;;;;;;;;;;;20.70;63.30;;;;;;10232058;28;95728;-68
2023/08/30 09:41:25;;;;;;;;;;;20.70;63.40;;;;;;10211477;28;93451;-68
2023/08/30 09:46:28;;;;;;;;;;;20.70;63.50;;;;;;10226696;28;93620;-68
2023/08/30 09:51:51;;;;;;;;;;;20.70;63.60;;;;;;10233450;28;94908;-68
2023/08/30 09:56:59;;;;;;;;;;;20.70;63.50;;;;;;10224266;28;113827;-68
2023/08/30 10:02:01;;;;;;;;;;;20.70;63.60;;;;;;10233251;28;93801;-67
2023/08/30 10:07:04;;;;;;;;;;;20.70;63.70;;;;;;10223096;28;94598;-67
2023/08/30 10:12:07;;;;;;;;;;;20.70;63.70;;;;;;10222082;28;92885;-67
2023/08/30 10:17:09;;;;;;;;;;;20.70;63.80;;;;;;10221911;28;97795;-67
2023/08/30 10:22:16;;;;;;;;;;;20.70;63.80;;;;;;10223061;28;92704;-67
2023/08/30 10:27:19;;;;;;;;;;;20.70;63.80;;;;;;10229439;28;97207;-67
2023/08/30 10:32:21;;;;;;;;;;;20.60;63.80;;;;;;10233569;28;94488;-67
2023/08/30 10:37:25;;;;;;;;;;;20.60;63.90;;;;;;10234691;28;93203;-68
2023/08/30 10:42:27;;;;;;;;;;;20.60;63.90;;;;;;10234214;28;94101;-68
2023/08/30 10:47:32;;;;;;;;;;;20.60;63.90;;;;;;10234089;28;93413;-67
2023/08/30 10:52:35;;;;;;;;;;;20.60;64.00;;;;;;10233923;28;93761;-67
2023/08/30 10:57:37;;;;;;;;;;;20.60;64.00;;;;;;10233903;28;94455;-67
2023/08/30 11:02:43;;;;;;;;;;;20.60;64.00;;;;;;10226098;28;93450;-67
2023/08/30 11:07:45;;;;;;;;;;;20.60;64.10;;;;;;10233591;28;94651;-67
2023/08/30 11:12:49;;;;;;;;;;;20.60;64.10;;;;;;10238320;28;94943;-67
2023/08/30 11:17:51;;;;;;;;;;;20.60;64.20;;;;;;10238169;28;96835;-67
2023/08/30 11:22:55;;;;;;;;;;;20.60;64.20;;;;;;10241512;28;94827;-67
2023/08/30 11:28:03;;;;;;;;;;;20.60;64.40;;;;;;10228439;28;94477;-67
2023/08/30 11:33:05;;;;;;;;;;;20.60;64.40;;;;;;10239067;28;93955;-67
2023/08/30 11:38:07;;;;;;;;;;;20.60;64.60;;;;;;10239708;28;93198;-67
2023/08/30 11:43:09;;;;;;;;;;;20.60;64.50;;;;;;10239911;28;93745;-67
2023/08/30 11:48:12;;;;;;;;;;;20.60;64.70;;;;;;10240072;28;94001;-67
2023/08/30 11:53:14;;;;;;;;;;;20.70;64.80;;;;;;10235508;28;93399;-68
2023/08/30 11:58:17;;;;;;;;;;;20.70;64.60;;;;;;10232079;28;94671;-67
2023/08/30 12:03:22;;;;;;;;;;;20.70;64.80;;;;;;10238076;28;93579;-67
2023/08/30 12:08:29;;;;;;;;;;;20.70;64.80;;;;;;10235486;28;96794;-67
2023/08/30 12:13:35;;;;;;;;;;;20.70;64.80;;;;;;10232774;28;94260;-67
2023/08/30 12:18:37;;;;;;;;;;;20.70;64.70;;;;;;10229420;28;94524;-67
2023/08/30 12:23:38;;;;;;;;;;;20.80;64.80;;;;;;10213175;28;94216;-67
2023/08/30 12:28:44;;;;;;;;;;;20.80;64.80;;;;;;10234465;28;94206;-67
2023/08/30 12:33:46;;;;;;;;;;;20.80;64.70;;;;;;10238058;28;93787;-67
2023/08/30 12:38:48;;;;;;;;;;;20.90;64.70;;;;;;10231219;28;93592;-67
2023/08/30 12:43:51;;;;;;;;;;;20.90;64.70;;;;;;10236593;28;92890;-66
2023/08/30 12:48:52;;;;;;;;;;;20.90;64.60;;;;;;10235987;28;93494;-67
2023/08/30 12:53:55;;;;;;;;;;;20.90;64.50;;;;;;10232682;28;94623;-67
2023/08/30 12:58:58;;;;;;;;;;;20.90;64.50;;;;;;10221361;28;96209;-67
2023/08/30 13:04:00;;;;;;;;;;;21.00;64.50;;;;;;10236341;28;93357;-67
2023/08/30 13:09:03;;;;;;;;;;;21.00;64.50;;;;;;10226095;28;94555;-67
2023/08/30 13:14:05;;;;;;;;;;;20.90;64.30;;;;;;10235851;28;93553;-68
2023/08/30 13:19:07;;;;;;;;;;;20.90;64.30;;;;;;10236128;28;93346;-67
2023/08/30 13:24:08;;;;;;;;;;;20.90;64.40;;;;;;10236183;28;93887;-68
2023/08/30 13:29:10;;;;;;;;;;;20.90;64.50;;;;;;10234746;28;94435;-67
2023/08/30 13:34:12;;;;;;;;;;;21.00;64.40;;;;;;10224762;28;92772;-68
2023/08/30 13:39:14;;;;;;;;;;;21.00;64.40;;;;;;10223382;28;94099;-68
2023/08/30 13:44:16;;;;;;;;;;;21.00;64.30;;;;;;10221399;28;94253;-67
2023/08/30 13:49:18;;;;;;;;;;;21.00;64.20;;;;;;10220384;28;96167;-67
2023/08/30 13:54:20;;;;;;;;;;;21.00;64.20;;;;;;10224833;28;94802;-68
2023/08/30 13:59:22;;;;;;;;;;;21.00;64.10;;;;;;10234606;28;93440;-68
2023/08/30 14:04:25;;;;;;;;;;;21.00;63.90;;;;;;10223396;28;94596;-68
2023/08/30 14:09:28;;;;;;;;;;;21.00;63.80;;;;;;10234019;28;94230;-67
2023/08/30 14:14:30;;;;;;;;;;;21.00;63.80;;;;;;10232878;28;94571;-67
2023/08/30 14:19:33;;;;;;;;;;;21.00;63.70;;;;;;10235499;28;94738;-67
2023/08/30 14:24:35;;;;;;;;;;;21.00;63.70;;;;;;10223822;28;93574;-67
2023/08/30 14:29:47;;;;;;;;;;;21.00;63.70;;;;;;10224551;28;93988;-68
2023/08/30 14:34:49;;;;;;;;;;;20.90;63.70;;;;;;10221646;28;93616;-66
2023/08/30 14:39:52;;;;;;;;;;;20.90;63.70;;;;;;10232415;28;96271;-67
2023/08/30 14:44:54;;;;;;;;;;;20.90;63.90;;;;;;10237030;28;94411;-67
2023/08/30 14:49:57;;;;;;;;;;;20.90;63.90;;;;;;10240943;28;93949;-67
2023/08/30 14:55:02;;;;;;;;;;;20.90;64.10;;;;;;10238092;28;94443;-67
2023/08/30 15:00:05;;;;;;;;;;;20.90;64.10;;;;;;10238581;28;93288;-67
2023/08/30 15:05:07;;;;;;;;;;;20.90;64.30;;;;;;10231440;28;93423;-68
2023/08/30 15:10:10;;;;;;;;;;;20.90;64.30;;;;;;10238560;28;94869;-67
2023/08/30 15:15:13;;;;;;;;;;;20.90;64.30;;;;;;10231428;28;93050;-66
2023/08/30 15:20:15;;;;;;;;;;;20.90;64.30;;;;;;10229682;28;94887;-67
2023/08/30 15:25:17;;;;;;;;;;;20.90;64.40;;;;;;10239425;28;94788;-67
2023/08/30 15:30:18;;;;;;;;;;;20.90;64.50;;;;;;10236566;28;96418;-66
2023/08/30 15:35:20;;;;;;;;;;;20.90;64.50;;;;;;10239895;28;93407;-68
2023/08/30 15:40:22;;;;;;;;;;;20.90;64.50;;;;;;10224926;28;94068;-68
2023/08/30 15:45:24;;;;;;;;;;;20.90;64.40;;;;;;10224808;28;93505;-67
2023/08/30 15:50:27;;;;;;;;;;;20.90;64.50;;;;;;10219898;28;93350;-67
2023/08/30 15:55:30;;;;;;;;;;;20.90;64.50;;;;;;10234789;28;94632;-68
2023/08/30 16:00:35;;;;;;;;;;;20.90;64.60;;;;;;10230763;28;95879;-67
2023/08/30 16:05:37;;;;;;;;;;;20.90;64.60;;;;;;10228412;28;92723;-68
2023/08/30 16:10:39;;;;;;;;;;;20.80;64.60;;;;;;10238845;28;93419;-68
2023/08/30 16:15:40;;;;;;;;;;;20.80;64.70;;;;;;10239620;28;93478;-67
2023/08/30 16:20:43;;;;;;;;;;;20.80;64.60;;;;;;10239329;28;96298;-67
2023/08/30 16:25:44;;;;;;;;;;;20.80;64.70;;;;;;10238404;28;94166;-68
2023/08/30 16:30:46;;;;;;;;;;;20.80;64.60;;;;;;10238454;28;94563;-67
2023/08/30 16:35:48;;;;;;;;;;;20.80;64.60;;;;;;10235765;28;93533;-66
2023/08/30 16:40:49;;;;;;;;;;;20.80;64.60;;;;;;10237871;28;93460;-67
2023/08/30 16:45:51;;;;;;;;;;;20.80;64.70;;;;;;10234629;28;93450;-67
2023/08/30 16:50:53;;;;;;;;;;;20.80;64.60;;;;;;10220737;28;94124;-67
2023/08/30 16:55:54;;;;;;;;;;;20.80;64.60;;;;;;10233015;28;93180;-67
2023/08/30 17:00:56;;;;;;;;;;;20.80;64.60;;;;;;10238218;28;94613;-67
2023/08/30 17:06:00;;;;;;;;;;;20.70;64.50;;;;;;10235677;28;93932;-67
2023/08/30 17:11:06;;;;;;;;;;;20.70;64.50;;;;;;10231909;28;96973;-67
2023/08/30 17:16:08;;;;;;;;;;;20.70;64.40;;;;;;10229023;28;93850;-68
2023/08/30 17:21:11;;;;;;;;;;;20.70;64.30;;;;;;10220010;28;93538;-67
2023/08/30 17:26:13;;;;;;;;;;;20.70;64.30;;;;;;10237104;28;94563;-67
2023/08/30 17:31:15;;;;;;;;;;;20.70;64.30;;;;;;10224331;28;94986;-66
2023/08/30 17:36:17;;;;;;;;;;;20.70;64.20;;;;;;10245863;28;94485;-68
2023/08/30 17:41:19;;;;;;;;;;;20.70;64.10;;;;;;10223634;28;94211;-69
2023/08/30 17:46:21;;;;;;;;;;;20.80;64.40;;;;;;10235741;28;94939;-68
2023/08/30 17:51:23;;;;;;;;;;;20.90;65.10;;;;;;10234744;28;94879;-69
2023/08/30 17:56:25;;;;;;;;;;;21.00;65.70;;;;;;10238575;28;93942;-68
2023/08/30 18:01:28;;;;;;;;;;;21.20;67.60;;;;;;10232897;28;96936;-68
2023/08/30 18:06:30;;;;;;;;;;;21.30;66.50;;;;;;10236109;28;94108;-68
2023/08/30 18:11:32;;;;;;;;;;;21.40;65.90;;;;;;10238034;28;93409;-69
2023/08/30 18:16:34;;;;;;;;;;;21.40;65.90;;;;;;10234331;28;93858;-69
2023/08/30 18:21:36;;;;;;;;;;;21.40;65.70;;;;;;10236469;28;94575;-67
2023/08/30 18:26:37;;;;;;;;;;;21.30;65.70;;;;;;10248258;28;94397;-68
2023/08/30 18:31:40;;;;;;;;;;;21.30;65.50;;;;;;10234681;28;93821;-69
2023/08/30 18:36:44;;;;;;;;;;;21.30;65.50;;;;;;10241984;28;93135;-69
2023/08/30 18:41:46;;;;;;;;;;;21.20;65.40;;;;;;10237040;28;93299;-69
2023/08/30 18:46:48;;;;;;;;;;;21.20;65.40;;;;;;10239867;28;94522;-69
2023/08/30 18:51:50;;;;;;;;;;;21.20;65.30;;;;;;10224502;28;95904;-69
2023/08/30 18:56:51;;;;;;;;;;;21.10;65.20;;;;;;10247808;28;94737;-69
2023/08/30 19:01:53;;;;;;;;;;;21.10;65.20;;;;;;10234072;28;94381;-69
2023/08/30 19:06:55;;;;;;;;;;;21.10;65.20;;;;;;10220796;28;94460;-70
2023/08/30 19:11:57;;;;;;;;;;;21.10;65.00;;;;;;10220460;28;94963;-70
2023/08/30 19:16:58;;;;;;;;;;;21.10;65.10;;;;;;10240830;28;93478;-68
2023/08/30 19:22:00;;;;;;;;;;;21.10;64.80;;;;;;10235065;28;93874;-71
2023/08/30 19:27:03;;;;;;;;;;;21.00;64.60;;;;;;10235742;28;94828;-69
2023/08/30 19:32:05;;;;;;;;;;;21.00;64.40;;;;;;10239395;28;94009;-70
2023/08/30 19:37:07;;;;;;;;;;;21.00;64.70;;;;;;10233660;28;94565;-69
2023/08/30 19:42:09;;;;;;;;;;;21.00;64.70;;;;;;10250626;28;95903;-68
2023/08/30 19:47:11;;;;;;;;;;;21.00;64.70;;;;;;10249292;28;94530;-70
2023/08/30 19:52:15;;;;;;;;;;;21.10;64.70;;;;;;10233061;28;93508;-69
2023/08/30 19:57:17;;;;;;;;;;;21.10;64.60;;;;;;10228465;28;93778;-70
2023/08/30 20:02:19;;;;;;;;;;;21.10;64.50;;;;;;10256972;28;93960;-70
2023/08/30 20:07:20;;;;;;;;;;;21.10;64.40;;;;;;10247907;28;93846;-70
2023/08/30 20:12:22;;;;;;;;;;;21.10;64.50;;;;;;10223850;28;94696;-70
2023/08/30 20:17:24;;;;;;;;;;;21.00;64.30;;;;;;10240391;28;93715;-69
2023/08/30 20:22:32;;;;;;;;;;;21.10;64.40;;;;;;10254509;28;93699;-69
2023/08/30 20:27:34;;;;;;;;;;;21.10;64.20;;;;;;10238172;28;93773;-71
2023/08/30 20:32:36;;;;;;;;;;;21.00;64.10;;;;;;10232672;28;96820;-70
2023/08/30 20:37:38;;;;;;;;;;;21.00;64.10;;;;;;10234977;28;94055;-70
2023/08/30 20:42:41;;;;;;;;;;;21.00;63.90;;;;;;10234700;28;93624;-70
2023/08/30 20:47:47;;;;;;;;;;;21.00;63.90;;;;;;10232339;28;94964;-70
2023/08/30 20:52:49;;;;;;;;;;;21.00;63.90;;;;;;10236576;28;94573;-70
2023/08/30 20:57:51;;;;;;;;;;;20.90;63.80;;;;;;10236722;28;94582;-70
2023/08/30 21:02:53;;;;;;;;;;;20.90;63.70;;;;;;10236498;28;93440;-70
2023/08/30 21:07:54;;;;;;;;;;;20.90;63.70;;;;;;10224939;28;94286;-70
2023/08/30 21:12:57;;;;;;;;;;;20.90;63.70;;;;;;10232412;28;94150;-70
2023/08/30 21:18:01;;;;;;;;;;;20.90;63.60;;;;;;10206756;28;94182;-70
2023/08/30 21:23:04;;;;;;;;;;;20.90;63.60;;;;;;10233862;28;96327;-70
2023/08/30 21:28:07;;;;;;;;;;;20.80;63.50;;;;;;10233487;28;96638;-70
2023/08/30 21:33:09;;;;;;;;;;;20.80;63.40;;;;;;10226072;28;93449;-70
2023/08/30 21:38:13;;;;;;;;;;;20.80;63.40;;;;;;10215140;28;93841;-70
2023/08/30 21:43:15;;;;;;;;;;;20.70;63.30;;;;;;10221858;28;94443;-70
2023/08/30 21:48:16;;;;;;;;;;;20.70;63.20;;;;;;10217789;28;94520;-70
2023/08/30 21:53:18;;;;;;;;;;;20.70;63.20;;;;;;10219700;28;92562;-70
2023/08/30 21:58:20;;;;;;;;;;;20.70;63.30;;;;;;10235694;28;93313;-70
2023/08/30 22:03:22;;;;;;;;;;;20.70;63.20;;;;;;10226120;28;93572;-70
2023/08/30 22:08:24;;;;;;;;;;;20.70;63.10;;;;;;10238234;28;93416;-69
2023/08/30 22:13:27;;;;;;;;;;;20.70;63.10;;;;;;10233380;28;96196;-69
2023/08/30 22:18:29;;;;;;;;;;;20.70;63.10;;;;;;10248924;28;94063;-69
2023/08/30 22:23:32;;;;;;;;;;;20.60;63.00;;;;;;10235460;28;94854;-70
2023/08/30 22:28:34;;;;;;;;;;;20.60;63.00;;;;;;10239509;28;94386;-69
2023/08/30 22:33:36;;;;;;;;;;;20.60;63.00;;;;;;10234505;28;94069;-69
2023/08/30 22:38:38;;;;;;;;;;;20.60;62.90;;;;;;10234111;28;94417;-70
2023/08/30 22:43:40;;;;;;;;;;;20.60;62.80;;;;;;10231887;28;94537;-70
2023/08/30 22:48:42;;;;;;;;;;;20.60;62.90;;;;;;10234620;28;94587;-70
2023/08/30 22:53:44;;;;;;;;;;;20.60;62.90;;;;;;10227120;28;93459;-70
2023/08/30 22:58:46;;;;;;;;;;;20.60;62.80;;;;;;10220341;28;93448;-70
2023/08/30 23:03:48;;;;;;;;;;;20.60;62.80;;;;;;10219902;28;95759;-70
2023/08/30 23:08:50;;;;;;;;;;;20.50;62.80;;;;;;10236799;28;92997;-70
2023/08/30 23:13:51;;;;;;;;;;;20.50;62.70;;;;;;10228929;28;93872;-70
2023/08/30 23:18:53;;;;;;;;;;;20.50;62.70;;;;;;10240650;28;93911;-69
2023/08/30 23:23:58;;;;;;;;;;;20.50;62.60;;;;;;10227432;28;93380;-70
2023/08/30 23:28:59;;;;;;;;;;;20.50;62.60;;;;;;10241307;28;93507;-69
2023/08/30 23:34:02;;;;;;;;;;;20.50;62.60;;;;;;10228965;28;93941;-70
2023/08/30 23:39:05;;;;;;;;;;;20.50;62.60;;;;;;10240208;28;93692;-70
2023/08/30 23:44:07;;;;;;;;;;;20.50;62.60;;;;;;10239021;28;93954;-70
2023/08/30 23:49:09;;;;;;;;;;;20.50;62.50;;;;;;10237321;28;94684;-71
2023/08/30 23:54:12;;;;;;;;;;;20.50;62.60;;;;;;10227209;28;96972;-69
2023/08/30 23:59:14;;;;;;;;;;;20.40;62.60;;;;;;10221403;28;93454;-70
